Home > Products > Valid Products > MTR

000
SAUS45 KLKN 182254
MTRP68
METAR KP68 182253Z AUTO VRB04KT 06/M03 A3012 RMK AO1 SLP193
T00561033





000
SAUS45 KLKN 182154
MTRP68
METAR KP68 182153Z AUTO 02004KT 06/M03 A3011 RMK AO1 SLP191
T00561033





000
SAUS45 KLKN 182055
MTRP68
METAR KP68 182053Z AUTO 21005KT 03/M03 A3012 RMK AO1 SLP197
T00281028 56012





000
SAUS45 KLKN 181954
MTRP68
METAR KP68 181953Z AUTO VRB03KT 03/M03 A3012 RMK AO1 SLP196
T00331033





000
SAUS45 KLKN 181854
MTRP68
METAR KP68 181853Z AUTO VRB03KT 02/M04 A3015 RMK AO1 SLP207
T00221039





000
SAUS45 KLKN 181755
MTRP68
METAR KP68 181753Z AUTO 25009KT 01/M03 A3016 RMK AO1 SLP212
T00111033 10017 21039 51012





000
SAUS45 KLKN 181654
MTRP68
METAR KP68 181653Z AUTO 17006KT 00/M03 A3015 RMK AO1 SLP209
T00001028





000
SAUS45 KLKN 181554
MTRP68
METAR KP68 181553Z AUTO 21007KT M02/M04 A3013 RMK AO1 SLP210
T10221039





000
SAUS45 KLKN 181455
MTRP68
METAR KP68 181453Z AUTO 18005KT M04/M06 A3012 RMK AO1 SLP207
T10391056 53010





000
SAUS45 KLKN 181355
MTRP68
METAR KP68 181353Z AUTO 17006KT M02/M04 A3010 RMK AO1 SLP195
T10221039





000
SAUS45 KLKN 181355
MTRP68
METAR KP68 181353Z AUTO 17006KT M02/M04 A3010 RMK AO1 SLP195
T10221039





000
SAUS45 KLKN 181254
MTRP68
METAR KP68 181253Z AUTO 11003KT M02/M03 A3008 RMK AO1 SLP190
T10171033





000
SAUS45 KLKN 181254
MTRP68
METAR KP68 181253Z AUTO 11003KT M02/M03 A3008 RMK AO1 SLP190
T10171033





000
SAUS45 KLKN 181154
MTRP68
METAR KP68 181153Z AUTO 22005KT M02/M03 A3008 RMK AO1 SLP185
T10171028 10000 21028 53009





000
SAUS45 KLKN 181054
MTRP68
METAR KP68 181053Z AUTO 20003KT M03/M04 A3007 RMK AO1 SLP178
T10281039





000
SAUS45 KLKN 181054
MTRP68
METAR KP68 181053Z AUTO 20003KT M03/M04 A3007 RMK AO1 SLP178
T10281039





000
SAUS45 KLKN 180956 COR
MTRP68
METAR KP68 180953Z AUTO 11004KT M02/M04 A3006 RMK AO1 SLP174
T10221039





000
SAUS45 KLKN 180955 COR
MTRP68
METAR KP68 180953Z AUTO 11004KT M02/M04 A3006 RMK AO1 SLP174
T10221039





000
SAUS45 KLKN 180855
MTRP68
METAR KP68 180853Z AUTO 00000KT M02/M03 A3005 RMK AO1 SLP171
T10171028 51003





000
SAUS45 KLKN 180855
MTRP68
METAR KP68 180853Z AUTO 00000KT M02/M03 A3005 RMK AO1 SLP171
T10171028 51003





000
SAUS45 KLKN 180755
MTRP68
METAR KP68 180753Z AUTO 17004KT M02/M03 A3005 RMK AO1 SLP169
T10171033 400441083





000
SAUS45 KLKN 180755
MTRP68
METAR KP68 180753Z AUTO 17004KT M02/M03 A3005 RMK AO1 SLP169
T10171033 400441083





000
SAUS45 KLKN 180654
MTRP68
METAR KP68 180653Z AUTO 22005KT M01/M03 A3005 RMK AO1 SLP175
T10111033





000
SAUS45 KLKN 180555
MTRP68
METAR KP68 180553Z AUTO 21006KT M01/M02 A3004 RMK AO1 SLP177
T10061022 10028 21011 51006





000
SAUS45 KLKN 180454
MTRP68
METAR KP68 180453Z AUTO 21003KT 00/M03 A3004 RMK AO1 SLP178
T00001028





000
SAUS45 KLKN 180354
MTRP68
METAR KP68 180353Z AUTO 23004KT M01/M03 A3003 RMK AO1 SLP182
T10061033





000
SAUS45 KLKN 180354
MTRP68
METAR KP68 180353Z AUTO 23004KT M01/M03 A3003 RMK AO1 SLP182
T10061033





000
SAUS45 KLKN 180255
MTRP68
METAR KP68 180253Z AUTO 20003KT 01/M03 A3002 RMK AO1 SLP178
T00061028 51018





000
SAUS45 KLKN 180155
MTRP68
METAR KP68 180153Z AUTO 23004KT 01/M03 A3000 RMK AO1 SLP171
T00111028





000
SAUS45 KLKN 180155
MTRP68
METAR KP68 180153Z AUTO 23004KT 01/M03 A3000 RMK AO1 SLP171
T00111028





000
SAUS45 KLKN 180054
MTRP68
METAR KP68 180053Z AUTO 20003KT 01/M04 A2998 RMK AO1 SLP168
T00061044





000
SAUS45 KLKN 172354
MTRP68
METAR KP68 172353Z AUTO 00000KT 03/M04 A2996 RMK AO1 SLP150
T00281044 10044 21022 53006





000
SAUS45 KLKN 172254
MTRP68
METAR KP68 172253Z AUTO 05004KT 04/M04 A2994 RMK AO1 SLP138
T00441044





000
SAUS45 KLKN 172154
MTRP68
METAR KP68 172153Z AUTO 09004KT 04/M04 A2993 RMK AO1 SLP137
T00441039





000
SAUS45 KLKN 172154
MTRP68
METAR KP68 172153Z AUTO 09004KT 04/M04 A2993 RMK AO1 SLP137
T00441039





000
SAUS45 KLKN 172055
MTRP68
METAR KP68 172053Z AUTO 08005KT 03/M03 A2994 RMK AO1 SLP138
T00331033 56017





000
SAUS45 KLKN 171954
MTRP68
METAR KP68 171953Z AUTO 00000KT 03/M04 A2995 RMK AO1 SLP142
T00331039





000
SAUS45 KLKN 171854
MTRP68
METAR KP68 171853Z AUTO 26003KT 01/M04 A2997 RMK AO1 SLP153
T00111039





000
SAUS45 KLKN 171755
MTRP68
METAR KP68 171753Z AUTO 00000KT M02/M05 A2999 RMK AO1 SLP172
T10221050 11022 21083 52012





000
SAUS45 KLKN 171655
MTRP68
METAR KP68 171653Z AUTO 00000KT M03/M06 A2998 RMK AO1 SLP165
T10331056





000
SAUS45 KLKN 171555
MTRP68
METAR KP68 171553Z AUTO 24003KT M06/M07 A2996 RMK AO1 SLP164
T10561072





000
SAUS45 KLKN 171555
MTRP68
METAR KP68 171553Z AUTO 24003KT M06/M07 A2996 RMK AO1 SLP164
T10561072





000
SAUS45 KLKN 171455
MTRP68
METAR KP68 171453Z AUTO 00000KT M07/M09 A2995 RMK AO1 SLP163
T10671089 51006





000
SAUS45 KLKN 171354
MTRP68
METAR KP68 171353Z AUTO 00000KT M07/M09 A2995 RMK AO1 SLP159
T10721089





000
SAUS45 KLKN 171255
MTRP68
METAR KP68 171253Z AUTO 35004KT M08/M09 A2994 RMK AO1 SLP156
T10781094





000
SAUS45 KLKN 171155
MTRP68
METAR KP68 171153Z AUTO 24003KT M06/M08 A2993 RMK AO1 SLP141 70001
T10611083 11028 21067 56002





000
SAUS45 KLKN 171055
MTRP68
METAR KP68 171053Z AUTO 19003KT M06/M08 A2993 RMK AO1 SLP141
T10611083





000
SAUS45 KLKN 170954
MTRP68
METAR KP68 170953Z AUTO 22004KT M06/M08 A2993 RMK AO1 SLP138
T10611083





000
SAUS45 KLKN 170954
MTRP68
METAR KP68 170953Z AUTO 22004KT M06/M08 A2993 RMK AO1 SLP138
T10611083





000
SAUS45 KLKN 170854
MTRP68
METAR KP68 170853Z AUTO 17005KT M05/M07 A2994 RMK AO1 SLP139
T10501072 58008





000
SAUS45 KLKN 170854
MTRP68
METAR KP68 170853Z AUTO 17005KT M05/M07 A2994 RMK AO1 SLP139
T10501072 58008





000
SAUS45 KLKN 170755
MTRP68
METAR KP68 170753Z AUTO 00000KT M04/M07 A2995 RMK AO1 SLP144
T10441067 400501050





000
SAUS45 KLKN 170755
MTRP68
METAR KP68 170753Z AUTO 00000KT M04/M07 A2995 RMK AO1 SLP144
T10441067 400501050





000
SAUS45 KLKN 170654
MTRP68
METAR KP68 170653Z AUTO 27005KT M03/M07 A2997 RMK AO1 SLP151
T10331067





000
SAUS45 KLKN 170555
MTRP68
METAR KP68 170553Z AUTO 21003KT M04/M07 A2997 RMK AO1 SLP154
T10441067 10022 21044 53002





000
SAUS45 KLKN 170455
MTRP68
METAR KP68 170453Z AUTO 20003KT M03/M06 A2997 RMK AO1 SLP154
T10281056





000
SAUS45 KLKN 170455
MTRP68
METAR KP68 170453Z AUTO 20003KT M03/M06 A2997 RMK AO1 SLP154
T10281056





000
SAUS45 KLKN 170354
MTRP68
METAR KP68 170353Z AUTO 20005KT M02/M05 A2996 RMK AO1 SLP152
T10221050





000
SAUS45 KLKN 170254
MTRP68
METAR KP68 170253Z AUTO 00000KT M02/M04 A2996 RMK AO1 SLP152
T10221044 51006





000
SAUS45 KLKN 170154
MTRP68
METAR KP68 170153Z AUTO 22007KT M01/M04 A2996 RMK AO1 SLP148
T10111039





000
SAUS45 KLKN 170055
MTRP68
METAR KP68 170053Z AUTO 16007KT M01/M04 A2995 RMK AO1 SLP141
T10061039





000
SAUS45 KLKN 162355
MTRP68
METAR KP68 162353Z AUTO 24004KT 03/M04 A2994 RMK AO1 SLP130
T00281039 10050 20000 50000





000
SAUS45 KLKN 162255
MTRP68
METAR KP68 162253Z AUTO 17011KT 03/M03 A2994 RMK AO1 SLP131
T00281033





000
SAUS45 KLKN 162155
MTRP68
METAR KP68 162153Z AUTO 15009KT 04/M03 A2994 RMK AO1 SLP124
T00391033





000
SAUS45 KLKN 162054
MTRP68
METAR KP68 162053Z AUTO 14004KT 04/M03 A2994 RMK AO1 SLP126
T00391033 56013





000
SAUS45 KLKN 161954
MTRP68
METAR KP68 161953Z AUTO VRB03KT 03/M03 A2995 RMK AO1 SLP133
T00331033





000
SAUS45 KLKN 161855
MTRP68
METAR KP68 161853Z AUTO 00000KT 02/M04 A2996 RMK AO1 SLP142
T00221044





000
SAUS45 KLKN 161754
MTRP68
METAR KP68 161753Z AUTO 00000KT 01/M03 A2998 RMK AO1 SLP150 60001
T00111028 10011 21017 51008





000
SAUS45 KLKN 161655
MTRP68
METAR KP68 161653Z AUTO 00000KT M01/M03 A2998 RMK AO1 SLP154 P0001
T10061033





000
SAUS45 KLKN 161555
MTRP68
METAR KP68 161553Z AUTO 31004KT M01/M04 A2997 RMK AO1 SLP149
T10111044





000
SAUS45 KLKN 161555
MTRP68
METAR KP68 161553Z AUTO 31004KT M01/M04 A2997 RMK AO1 SLP149
T10111044





000
SAUS45 KLKN 161454
MTRP68
METAR KP68 161453Z AUTO 07003KT M01/M04 A2996 RMK AO1 SLP143
T10111044 53005





000
SAUS45 KLKN 161354
MTRP68
METAR KP68 161353Z AUTO 19006KT 00/M07 A2995 RMK AO1 SLP138
T00001067





000
SAUS45 KLKN 161255
MTRP68
METAR KP68 161253Z AUTO 17007KT 00/M08 A2993 RMK AO1 SLP132
T00001078





000
SAUS45 KLKN 161155
MTRP68
METAR KP68 161153Z AUTO 15008KT 00/M08 A2994 RMK AO1 SLP134
T00001078 10011 21028 58006





000
SAUS45 KLKN 161055
MTRP68
METAR KP68 161053Z AUTO 15013KT 00/M07 A2995 RMK AO1 SLP138
T00001072





000
SAUS45 KLKN 160954
MTRP68
METAR KP68 160953Z AUTO 16007KT 140V200 01/M08 A2996 RMK AO1 SLP138
T00111078





000
SAUS45 KLKN 160954
MTRP68
METAR KP68 160953Z AUTO 16007KT 140V200 01/M08 A2996 RMK AO1 SLP138
T00111078





000
SAUS45 KLKN 160854
MTRP68
METAR KP68 160853Z AUTO 19003KT 00/M07 A2996 RMK AO1 SLP139
T00001067 58002





000
SAUS45 KLKN 160754
MTRP68
METAR KP68 160753Z AUTO 15004KT M01/M07 A2997 RMK AO1 SLP146
T10061067 400171083





000
SAUS45 KLKN 160654
MTRP68
METAR KP68 160653Z AUTO 15005KT M01/M08 A2998 RMK AO1 SLP150
T10111078





000
SAUS45 KLKN 160555
MTRP68
METAR KP68 160553Z AUTO 15008KT M01/M08 A2996 RMK AO1 SLP153
T10061078 10017 21017 53000





000
SAUS45 KLKN 160455
MTRP68
METAR KP68 160453Z AUTO 14007KT M01/M07 A2996 RMK AO1 SLP156
T10061072





000
SAUS45 KLKN 160355
MTRP68
METAR KP68 160353Z AUTO 00000KT 00/M07 A2996 RMK AO1 SLP163
T00001072





000
SAUS45 KLKN 160355
MTRP68
METAR KP68 160353Z AUTO 00000KT 00/M07 A2996 RMK AO1 SLP163
T00001072





000
SAUS45 KLKN 160254
MTRP68
METAR KP68 160253Z AUTO 15016G25KT 01/M06 A2996 RMK AO1 PK WND
15031/0201 SLP161 T00111061 55007





000
SAUS45 KLKN 160154
MTRP68
METAR KP68 160153Z AUTO 16021G35KT 01/M06 A2994 RMK AO1 PK WND
16037/0141 SLP152 T00111056





000
SAUS45 KLKN 160055
MTRP68
METAR KP68 160053Z AUTO 15017G25KT 01/M06 A2997 RMK AO1 PK WND
15028/0036 SLP160 T00111056





000
SAUS45 KLKN 152355
MTRP68
METAR KP68 152353Z AUTO 16016KT 01/M05 A2999 RMK AO1 PK WND
16026/2302 SLP161 T00111050 10017 21028 55011





    US Dept of Commerce
    National Oceanic and Atmospheric Administration
    National Weather Service
    1325 East West Highway
    Silver Spring, MD 20910
    Page Author: NWS Internet Services Team
Disclaimer
Information Quality
Credits
Glossary
Privacy Policy
Freedom of Information Act (FOIA)
About Us
Career Opportunities